Time;durP1;ratioP1;P1;durP2;ratioP2;P2;SDS_P1;SDS_P2;PMS_P1;PMS_P2;Temp;Humidity;BMP_temperature;BMP_pressure;BME280_temperature;BME280_humidity;BME280_pressure;Samples;Min_cycle;Max_cycle;Signal;HPM_P1;HPM_P2
2024/01/15 00:00:39;;;;;;;7.65;4.60;;;;;;;1.49;100.00;91362.19;4951371;28;20542;-77
2024/01/15 00:03:04;;;;;;;7.45;4.25;;;;;;;1.47;100.00;91364.28;4952535;28;20067;-78
2024/01/15 00:05:30;;;;;;;10.23;4.32;;;;;;;1.42;100.00;91352.94;4956020;28;20031;-78
2024/01/15 00:07:56;;;;;;;10.05;4.57;;;;;;;1.45;100.00;91349.84;4954549;28;20392;-77
2024/01/15 00:10:21;;;;;;;8.80;4.82;;;;;;;1.47;100.00;91359.13;4945551;28;20027;-78
2024/01/15 00:12:47;;;;;;;8.30;4.90;;;;;;;1.43;100.00;91354.47;4956130;28;20039;-77
2024/01/15 00:15:13;;;;;;;8.15;4.80;;;;;;;1.41;100.00;91345.44;4952845;28;20038;-78
2024/01/15 00:17:38;;;;;;;8.73;4.25;;;;;;;1.38;100.00;91345.97;4956284;28;20035;-78
2024/01/15 00:20:05;;;;;;;9.15;4.47;;;;;;;1.35;100.00;91334.38;4946405;28;20045;-78
2024/01/15 00:22:31;;;;;;;5.93;3.88;;;;;;;1.35;100.00;91338.72;4932705;29;20044;-78
2024/01/15 00:24:57;;;;;;;7.63;4.25;;;;;;;1.34;100.00;91344.94;4952866;28;20429;-76
2024/01/15 00:27:23;;;;;;;8.98;4.70;;;;;;;1.32;100.00;91347.75;4950279;28;20035;-77
2024/01/15 00:29:51;;;;;;;7.20;4.57;;;;;;;1.33;100.00;91340.78;4951602;28;20043;-76
2024/01/15 00:32:17;;;;;;;7.55;4.32;;;;;;;1.31;100.00;91346.22;4949049;28;20118;-76
2024/01/15 00:34:42;;;;;;;7.65;4.28;;;;;;;1.31;100.00;91335.91;4952364;28;20027;-77
2024/01/15 00:37:10;;;;;;;6.47;4.00;;;;;;;1.30;100.00;91329.19;4953788;28;20045;-78
2024/01/15 00:39:36;;;;;;;5.43;3.55;;;;;;;1.29;100.00;91337.97;4952879;28;20035;-78
2024/01/15 00:42:02;;;;;;;7.15;3.72;;;;;;;1.29;100.00;91326.88;4951411;28;20032;-76
2024/01/15 00:44:28;;;;;;;7.10;3.80;;;;;;;1.27;100.00;91321.97;4953595;28;20419;-77
2024/01/15 00:46:54;;;;;;;5.40;3.60;;;;;;;1.22;100.00;91312.44;4954458;28;20039;-78
2024/01/15 00:49:19;;;;;;;5.47;3.72;;;;;;;1.20;100.00;91309.34;4949746;28;20046;-78
2024/01/15 00:51:45;;;;;;;8.23;3.45;;;;;;;1.20;100.00;91298.28;4948138;28;20031;-77
2024/01/15 00:54:10;;;;;;;5.63;3.58;;;;;;;1.19;100.00;91291.53;4954217;28;20031;-77
2024/01/15 00:56:36;;;;;;;8.30;3.58;;;;;;;1.16;100.00;91285.09;4953839;28;20055;-77
2024/01/15 00:59:02;;;;;;;5.70;3.50;;;;;;;1.11;100.00;91274.03;4949237;28;20089;-78
2024/01/15 01:01:28;;;;;;;6.30;3.50;;;;;;;1.13;100.00;91282.28;4938655;28;20459;-77
2024/01/15 01:03:53;;;;;;;7.65;3.90;;;;;;;1.01;100.00;91256.75;4951173;28;20109;-78
2024/01/15 01:06:19;;;;;;;5.63;3.60;;;;;;;1.08;100.00;91269.38;4954500;28;20122;-76
2024/01/15 01:08:44;;;;;;;6.60;4.20;;;;;;;1.07;100.00;91270.41;4964861;28;20051;-76
2024/01/15 01:11:15;;;;;;;8.45;4.20;;;;;;;1.03;100.00;91267.56;4964039;28;20074;-76
2024/01/15 01:13:40;;;;;;;8.15;4.00;;;;;;;0.99;100.00;91279.41;4960957;28;20768;-79
2024/01/15 01:16:06;;;;;;;5.75;3.90;;;;;;;0.93;100.00;91283.81;4950724;28;20086;-79
2024/01/15 01:18:31;;;;;;;6.82;3.65;;;;;;;0.86;100.00;91273.00;4943300;28;20099;-77
2024/01/15 01:20:57;;;;;;;5.30;3.50;;;;;;;0.80;100.00;91266.28;4930312;29;20135;-79
2024/01/15 01:23:23;;;;;;;8.65;4.20;;;;;;;0.74;100.00;91275.03;4945780;28;20038;-78
2024/01/15 01:25:48;;;;;;;6.78;3.92;;;;;;;0.67;100.00;91269.34;4932570;28;20046;-78
2024/01/15 01:28:14;;;;;;;6.93;4.03;;;;;;;0.59;100.00;91262.91;4949560;28;20039;-77
2024/01/15 01:30:39;;;;;;;8.75;3.75;;;;;;;0.57;100.00;91275.25;4950677;28;20023;-79
2024/01/15 01:33:05;;;;;;;6.30;3.55;;;;;;;0.50;100.00;91275.50;4950971;28;20499;-79
2024/01/15 01:35:30;;;;;;;6.32;3.72;;;;;;;0.51;100.00;91259.00;4952192;28;20027;-79
2024/01/15 01:37:56;;;;;;;5.55;3.67;;;;;;;0.47;100.00;91259.78;4936214;28;20047;-78
2024/01/15 01:40:22;;;;;;;5.90;3.17;;;;;;;0.44;100.00;91252.56;4952290;28;20060;-79
2024/01/15 01:42:48;;;;;;;5.95;3.90;;;;;;;0.41;100.00;91257.19;4944216;28;20050;-77
2024/01/15 01:45:14;;;;;;;5.75;3.42;;;;;;;0.33;100.00;91254.34;4951913;28;20509;-80
2024/01/15 01:47:41;;;;;;;6.57;3.40;;;;;;;0.27;100.00;91256.13;4942827;28;20442;-79
2024/01/15 01:50:07;;;;;;;5.63;3.55;;;;;;;0.24;100.00;91255.84;4947735;28;20067;-78
2024/01/15 01:52:33;;;;;;;4.68;3.10;;;;;;;0.20;100.00;91246.06;4946064;28;20415;-79
2024/01/15 01:55:00;;;;;;;7.53;3.30;;;;;;;0.17;100.00;91245.78;4951142;28;20031;-78
2024/01/15 01:57:26;;;;;;;5.20;3.08;;;;;;;0.11;100.00;91241.66;4932266;28;20534;-79
2024/01/15 01:59:51;;;;;;;6.07;3.20;;;;;;;0.10;100.00;91250.41;4954025;28;20034;-79
2024/01/15 02:02:18;;;;;;;4.93;3.28;;;;;;;0.06;100.00;91250.13;4973049;28;20015;-76
2024/01/15 02:04:44;;;;;;;6.20;3.17;;;;;;;0.06;100.00;91254.50;4947371;28;20416;-77
2024/01/15 02:07:10;;;;;;;5.97;3.22;;;;;;;0.05;100.00;91248.59;4947561;28;20051;-76
2024/01/15 02:09:36;;;;;;;7.65;3.50;;;;;;;0.01;100.00;91246.78;4955737;28;20035;-77
2024/01/15 02:12:02;;;;;;;5.20;3.00;;;;;;;-0.05;100.00;91240.81;4955852;28;20101;-77
2024/01/15 02:14:28;;;;;;;6.47;3.25;;;;;;;-0.07;100.00;91243.66;4952151;28;20134;-77
2024/01/15 02:16:54;;;;;;;6.47;3.33;;;;;;;-0.10;100.00;91226.16;4956652;28;20063;-77
2024/01/15 02:19:19;;;;;;;5.35;3.28;;;;;;;-0.12;100.00;91225.63;4964612;28;20047;-77
2024/01/15 02:21:45;;;;;;;4.63;3.00;;;;;;;-0.15;100.00;91212.50;4952921;28;20094;-77
2024/01/15 02:24:11;;;;;;;7.63;3.40;;;;;;;-0.15;100.00;91209.94;4949665;28;20035;-76
2024/01/15 02:26:39;;;;;;;5.80;2.97;;;;;;;-0.19;100.00;91217.38;4951553;28;20078;-78
2024/01/15 02:29:08;;;;;;;6.35;3.10;;;;;;;-0.25;100.00;91201.16;4952144;28;20122;-77
2024/01/15 02:31:33;;;;;;;4.90;2.83;;;;;;;-0.20;100.00;91200.41;4955068;28;20758;-76
2024/01/15 02:33:59;;;;;;;4.47;2.75;;;;;;;-0.21;100.00;91194.47;4946741;28;20043;-77
2024/01/15 02:36:24;;;;;;;6.20;2.97;;;;;;;-0.22;100.00;91194.72;4954789;28;20043;-78
2024/01/15 02:38:50;;;;;;;4.25;2.72;;;;;;;-0.27;100.00;91192.91;4946011;28;20386;-78
2024/01/15 02:41:15;;;;;;;5.03;2.60;;;;;;;-0.30;100.00;91190.81;4949433;28;20070;-78
2024/01/15 02:43:41;;;;;;;4.95;2.72;;;;;;;-0.31;100.00;91194.44;4950955;28;20031;-78
2024/01/15 02:46:07;;;;;;;6.93;3.00;;;;;;;-0.32;100.00;91197.25;4952856;28;20042;-77
2024/01/15 02:48:34;;;;;;;4.93;3.13;;;;;;;-0.35;100.00;91193.38;4951424;28;20067;-78
2024/01/15 02:51:01;;;;;;;7.72;3.10;;;;;;;-0.47;100.00;91164.56;4952708;28;20070;-78
2024/01/15 02:53:26;;;;;;;6.07;2.63;;;;;;;-0.37;100.00;91186.94;4950315;28;20047;-77
2024/01/15 02:55:52;;;;;;;5.18;2.67;;;;;;;-0.34;100.00;91194.16;4946969;28;20090;-77
2024/01/15 02:58:17;;;;;;;7.22;2.85;;;;;;;-0.34;100.00;91189.78;4947548;28;20131;-77
2024/01/15 03:00:43;;;;;;;5.18;2.90;;;;;;;-0.33;100.00;91186.19;4951794;28;20098;-78
2024/01/15 03:03:09;;;;;;;8.13;3.10;;;;;;;-0.33;100.00;91183.63;4952678;28;20031;-77
2024/01/15 03:05:34;;;;;;;5.38;2.92;;;;;;;-0.30;100.00;91172.06;4950798;28;20148;-78
2024/01/15 03:08:00;;;;;;;5.85;3.00;;;;;;;-0.29;100.00;91173.63;4952881;28;20114;-78
2024/01/15 03:10:25;;;;;;;5.40;3.10;;;;;;;-0.28;100.00;91163.06;4951363;28;20043;-78
2024/01/15 03:12:51;;;;;;;6.57;3.45;;;;;;;-0.26;100.00;91173.88;4945251;28;20031;-77
2024/01/15 03:15:18;;;;;;;7.22;3.15;;;;;;;-0.31;100.00;91162.81;4950139;28;20430;-78
2024/01/15 03:17:43;;;;;;;5.38;3.28;;;;;;;-0.33;100.00;91170.75;4935422;29;20113;-78
2024/01/15 03:20:10;;;;;;;5.07;3.03;;;;;;;-0.34;100.00;91171.78;4946122;28;20187;-78
2024/01/15 03:22:35;;;;;;;4.68;2.90;;;;;;;-0.39;100.00;91151.19;4953960;28;20025;-78
2024/01/15 03:25:01;;;;;;;4.95;3.10;;;;;;;-0.38;100.00;91151.97;4954302;28;20039;-77
2024/01/15 03:27:27;;;;;;;5.72;3.13;;;;;;;-0.36;100.00;91158.41;4952710;28;20042;-77
2024/01/15 03:29:52;;;;;;;4.70;2.70;;;;;;;-0.40;100.00;91146.31;4954926;28;20562;-79
2024/01/15 03:32:19;;;;;;;5.57;2.60;;;;;;;-0.43;100.00;91156.09;4942520;28;20031;-78
2024/01/15 03:34:46;;;;;;;4.70;2.70;;;;;;;-0.50;100.00;91144.47;4951577;28;20043;-78
2024/01/15 03:37:12;;;;;;;6.30;2.65;;;;;;;-0.51;100.00;91148.06;4955749;28;20111;-77
2024/01/15 03:39:38;;;;;;;5.25;3.10;;;;;;;-0.55;100.00;91152.16;4953375;28;20475;-78
2024/01/15 03:42:04;;;;;;;5.60;2.95;;;;;;;-0.57;100.00;91149.06;4946224;28;20118;-78
2024/01/15 03:44:29;;;;;;;6.25;3.05;;;;;;;-0.63;100.00;91135.44;4948584;28;20075;-78
2024/01/15 03:46:55;;;;;;;5.38;3.17;;;;;;;-0.66;100.00;91125.63;4949124;28;20450;-77
2024/01/15 03:49:21;;;;;;;5.55;3.08;;;;;;;-0.69;100.00;91134.63;4954058;28;20101;-78
2024/01/15 03:51:46;;;;;;;6.70;3.05;;;;;;;-0.74;100.00;91126.91;4951657;28;20019;-78
2024/01/15 03:54:12;;;;;;;6.18;3.30;;;;;;;-0.74;100.00;91128.72;4953773;28;20109;-78
2024/01/15 03:56:37;;;;;;;5.22;3.42;;;;;;;-0.77;100.00;91129.94;4953840;28;20030;-78
2024/01/15 03:59:03;;;;;;;9.85;3.53;;;;;;;-0.77;100.00;91124.81;4954237;28;20039;-78
2024/01/15 04:01:29;;;;;;;6.07;3.35;;;;;;;-0.73;100.00;91120.72;4946627;28;20099;-77
2024/01/15 04:03:55;;;;;;;5.85;3.35;;;;;;;-0.76;100.00;91115.34;4953288;28;20054;-78
2024/01/15 04:06:21;;;;;;;6.15;2.90;;;;;;;-0.77;100.00;91114.53;4953480;28;20023;-78
2024/01/15 04:08:46;;;;;;;5.30;3.30;;;;;;;-0.83;100.00;91110.41;4954433;28;20039;-77
2024/01/15 04:11:12;;;;;;;4.97;3.10;;;;;;;-0.84;100.00;91103.72;4953274;28;20039;-78
2024/01/15 04:13:37;;;;;;;7.00;3.22;;;;;;;-0.83;100.00;91110.41;4952384;28;20047;-78
2024/01/15 04:16:03;;;;;;;6.05;3.45;;;;;;;-0.84;100.00;91108.84;4959327;28;20042;-78
2024/01/15 04:18:29;;;;;;;6.57;3.38;;;;;;;-0.86;100.00;91104.00;4950352;28;20054;-77
2024/01/15 04:20:54;;;;;;;6.18;3.53;;;;;;;-0.86;100.00;91100.63;4951440;28;20028;-78
2024/01/15 04:23:20;;;;;;;6.10;3.65;;;;;;;-0.86;100.00;91100.63;4947761;28;20039;-77
2024/01/15 04:25:46;;;;;;;5.55;3.00;;;;;;;-0.89;100.00;91080.56;4951394;28;20026;-78
2024/01/15 04:28:12;;;;;;;8.88;3.50;;;;;;;-0.89;100.00;91071.06;4947356;28;20062;-78
2024/01/15 04:30:38;;;;;;;6.47;3.25;;;;;;;-0.86;100.00;91073.16;4953016;28;20043;-78
2024/01/15 04:33:03;;;;;;;5.53;3.25;;;;;;;-0.85;100.00;91073.91;4953673;28;20491;-78
2024/01/15 04:35:30;;;;;;;7.93;3.45;;;;;;;-0.89;100.00;91072.88;4951916;28;20083;-77
2024/01/15 04:37:56;;;;;;;6.38;3.17;;;;;;;-0.88;100.00;91071.84;4948658;28;20059;-77
2024/01/15 04:40:22;;;;;;;5.95;3.47;;;;;;;-0.94;100.00;91057.44;4951235;28;20407;-77
2024/01/15 04:42:47;;;;;;;6.10;3.53;;;;;;;-0.95;100.00;91058.44;4930395;29;20050;-77
2024/01/15 04:45:13;;;;;;;4.57;3.00;;;;;;;-0.96;100.00;91065.38;4954546;28;20186;-77
2024/01/15 04:47:39;;;;;;;7.55;3.50;;;;;;;-0.97;100.00;91065.63;4917635;29;20054;-77
2024/01/15 04:50:05;;;;;;;6.03;3.00;;;;;;;-1.00;100.00;91058.44;4951099;28;20066;-77
2024/01/15 04:52:31;;;;;;;5.43;3.30;;;;;;;-1.06;100.00;91044.78;4947644;28;20062;-78
2024/01/15 04:54:57;;;;;;;6.35;3.20;;;;;;;-1.03;100.00;91058.94;4942027;29;20094;-77
2024/01/15 04:57:22;;;;;;;9.38;3.25;;;;;;;-1.06;100.00;91055.84;4945508;28;20046;-77
2024/01/15 04:59:48;;;;;;;7.80;3.75;;;;;;;-1.11;100.00;91050.69;4944346;28;20456;-77
2024/01/15 05:02:13;;;;;;;5.60;3.40;;;;;;;-1.11;100.00;91055.03;4937773;28;20537;-77
2024/01/15 05:04:39;;;;;;;5.80;3.35;;;;;;;-1.20;100.00;91026.50;4947426;28;20039;-77
2024/01/15 05:07:05;;;;;;;6.25;3.40;;;;;;;-1.13;100.00;91042.44;4947673;28;20039;-77
2024/01/15 05:09:30;;;;;;;6.97;3.22;;;;;;;-1.13;100.00;91047.56;4945399;28;20028;-77
2024/01/15 05:11:56;;;;;;;5.75;3.10;;;;;;;-1.12;100.00;91045.81;4944523;28;20035;-77
2024/01/15 05:14:22;;;;;;;5.07;2.78;;;;;;;-1.11;100.00;91047.34;4948217;28;20452;-77
2024/01/15 05:16:49;;;;;;;5.18;2.97;;;;;;;-1.12;100.00;91046.56;4951043;28;20776;-77
2024/01/15 05:19:15;;;;;;;8.82;3.30;;;;;;;-1.14;100.00;91048.63;4952355;28;20023;-77
2024/01/15 05:21:40;;;;;;;5.55;3.05;;;;;;;-1.09;100.00;91056.34;4951514;28;20047;-77
2024/01/15 05:24:06;;;;;;;6.72;3.28;;;;;;;-1.09;100.00;91053.00;4952878;28;20021;-77
2024/01/15 05:26:31;;;;;;;6.80;3.20;;;;;;;-1.11;100.00;91048.09;4952998;28;20035;-77
2024/01/15 05:28:57;;;;;;;6.38;3.45;;;;;;;-1.14;100.00;91048.63;4950899;28;20043;-77
2024/01/15 05:31:25;;;;;;;4.93;3.28;;;;;;;-1.21;100.00;91042.94;4950587;28;20086;-77
2024/01/15 05:33:51;;;;;;;5.75;3.10;;;;;;;-1.16;100.00;91045.53;4951280;28;20495;-76
2024/01/15 05:36:16;;;;;;;5.60;2.85;;;;;;;-1.16;100.00;91040.38;4945038;28;20122;-77
2024/01/15 05:38:42;;;;;;;5.20;2.90;;;;;;;-1.18;100.00;91041.66;4931424;29;20031;-77
2024/01/15 05:41:07;;;;;;;4.78;2.65;;;;;;;-1.18;100.00;91042.44;4938292;28;20047;-77
2024/01/15 05:46:00;;;;;;;4.78;2.70;;;;;;;-1.05;100.00;91049.69;4926414;29;20067;-79
2024/01/15 05:48:25;;;;;;;5.47;3.00;;;;;;;-1.10;100.00;91044.53;4926816;29;20095;-79
2024/01/15 05:50:51;;;;;;;5.85;2.83;;;;;;;-1.08;100.00;91037.34;4922018;29;20036;-78
2024/01/15 05:53:17;;;;;;;5.55;3.00;;;;;;;-1.11;100.00;91031.94;4926450;29;20047;-78
2024/01/15 05:55:42;;;;;;;4.85;2.97;;;;;;;-1.19;100.00;91015.22;4926067;29;20024;-79
2024/01/15 05:58:08;;;;;;;3.85;2.50;;;;;;;-1.20;100.00;91018.78;4927067;29;20028;-78
2024/01/15 06:00:35;;;;;;;4.35;2.70;;;;;;;-1.22;100.00;91025.97;4932628;29;20035;-78
2024/01/15 06:03:00;;;;;;;4.07;2.78;;;;;;;-1.31;100.00;91019.75;4920266;29;20395;-78
2024/01/15 06:05:26;;;;;;;5.10;2.83;;;;;;;-1.31;100.00;91025.66;4917141;29;20040;-77
2024/01/15 06:07:52;;;;;;;5.07;2.78;;;;;;;-1.32;100.00;91018.22;4946183;28;20039;-79
2024/01/15 06:10:17;;;;;;;5.00;3.00;;;;;;;-1.39;100.00;91004.84;4939438;29;20035;-78
2024/01/15 06:12:44;;;;;;;5.07;3.40;;;;;;;-1.43;100.00;91001.22;4941852;29;20036;-77
2024/01/15 06:15:09;;;;;;;4.30;2.63;;;;;;;-1.43;100.00;91019.97;4947801;29;20047;-79
2024/01/15 06:17:35;;;;;;;3.83;2.63;;;;;;;-1.47;100.00;91014.56;4941228;29;20042;-79
2024/01/15 06:20:01;;;;;;;5.10;2.90;;;;;;;-1.50;100.00;91016.84;4939718;29;20038;-79
2024/01/15 06:22:26;;;;;;;5.22;3.08;;;;;;;-1.50;100.00;91015.06;4935394;29;20479;-80
2024/01/15 06:24:52;;;;;;;4.70;2.75;;;;;;;-1.51;100.00;91013.53;4941922;29;20111;-78
2024/01/15 06:27:18;;;;;;;4.45;2.60;;;;;;;-1.51;100.00;91008.38;4956818;29;20038;-77
2024/01/15 06:29:49;;;;;;;5.57;3.05;;;;;;;-1.52;100.00;91009.41;4946108;29;20103;-78
2024/01/15 06:32:15;;;;;;;6.07;3.13;;;;;;;-1.53;100.00;91009.63;4936678;29;20036;-79
2024/01/15 06:34:40;;;;;;;7.43;4.07;;;;;;;-1.54;100.00;91001.16;4943456;29;20036;-78
2024/01/15 06:37:06;;;;;;;7.95;3.47;;;;;;;-1.54;100.00;91006.31;4929791;29;20048;-78
2024/01/15 06:39:32;;;;;;;6.75;3.05;;;;;;;-1.54;100.00;91000.41;4930612;29;20028;-79
2024/01/15 06:41:57;;;;;;;6.00;3.58;;;;;;;-1.56;100.00;90994.75;4929366;29;20074;-79
2024/01/15 06:44:25;;;;;;;5.32;2.88;;;;;;;-1.59;100.00;90988.31;4943652;29;20060;-78
2024/01/15 06:46:51;;;;;;;4.43;2.60;;;;;;;-1.61;100.00;90987.03;4948255;29;20052;-79
2024/01/15 06:49:17;;;;;;;3.92;2.50;;;;;;;-1.65;100.00;90998.81;4930457;29;20039;-79
2024/01/15 06:51:42;;;;;;;4.75;2.42;;;;;;;-1.66;100.00;90995.47;4932659;29;20420;-76
2024/01/15 06:54:08;;;;;;;4.57;2.65;;;;;;;-1.67;100.00;91001.59;4927589;29;20031;-78
2024/01/15 06:56:34;;;;;;;4.85;2.72;;;;;;;-1.69;100.00;91001.06;4918345;29;20043;-79
2024/01/15 06:58:59;;;;;;;4.25;2.28;;;;;;;-1.70;100.00;90996.97;4937288;29;20095;-77
2024/01/15 07:01:25;;;;;;;5.40;2.70;;;;;;;-1.69;100.00;91007.00;4929604;29;20032;-79
2024/01/15 07:03:50;;;;;;;4.45;2.47;;;;;;;-1.74;100.00;90999.25;4934427;29;20108;-79
2024/01/15 07:06:17;;;;;;;4.13;2.22;;;;;;;-1.71;100.00;91014.19;4966728;28;20103;-80
2024/01/15 07:08:42;;;;;;;3.80;2.40;;;;;;;-1.70;100.00;91010.56;4941263;29;20510;-79
2024/01/15 07:11:08;;;;;;;4.70;2.40;;;;;;;-1.66;100.00;91008.31;4942111;28;20051;-78
2024/01/15 07:13:34;;;;;;;5.07;2.60;;;;;;;-1.73;100.00;91002.63;4933527;29;20036;-80
2024/01/15 07:15:59;;;;;;;4.88;2.70;;;;;;;-1.66;100.00;91013.44;4941574;29;20556;-80
2024/01/15 07:18:25;;;;;;;4.50;2.50;;;;;;;-1.65;100.00;91016.75;4950221;29;20042;-79
2024/01/15 07:20:51;;;;;;;6.93;2.92;;;;;;;-1.61;100.00;91026.28;4943314;29;20070;-79
2024/01/15 07:23:17;;;;;;;4.43;2.78;;;;;;;-1.59;100.00;91026.81;4945063;29;20032;-80
2024/01/15 07:25:43;;;;;;;4.80;2.55;;;;;;;-1.55;100.00;91033.00;4968895;28;20068;-79
2024/01/15 07:28:09;;;;;;;4.20;2.60;;;;;;;-1.34;100.00;91033.13;4951949;29;20047;-81
2024/01/15 07:30:35;;;;;;;4.32;2.50;;;;;;;-1.12;100.00;91026.03;4950086;29;20059;-80
2024/01/15 07:33:01;;;;;;;6.55;3.22;;;;;;;0.15;100.00;91024.72;4942331;29;20043;-79
2024/01/15 07:35:26;;;;;;;6.40;3.00;;;;;;;1.50;100.00;91033.66;4917562;29;20035;-78
2024/01/15 07:37:52;;;;;;;5.55;2.97;;;;;;;2.68;100.00;91026.59;4938183;29;20183;-80
2024/01/15 07:40:17;;;;;;;5.78;2.50;;;;;;;3.80;100.00;91034.09;4940690;29;20043;-80
2024/01/15 07:42:43;;;;;;;4.80;2.30;;;;;;;4.60;100.00;91029.81;4933358;29;20036;-80
2024/01/15 07:45:10;;;;;;;4.88;2.85;;;;;;;5.33;100.00;91027.47;4933264;29;20416;-79
2024/01/15 07:47:36;;;;;;;5.53;2.92;;;;;;;6.08;100.00;91020.25;4929255;29;20055;-79
2024/01/15 07:50:02;;;;;;;6.13;2.90;;;;;;;6.77;96.00;91027.75;4922380;29;20044;-80
2024/01/15 07:52:27;;;;;;;5.47;2.70;;;;;;;7.53;89.31;91027.63;4947154;29;20070;-80
2024/01/15 07:54:53;;;;;;;6.38;2.42;;;;;;;8.06;81.50;91021.44;4924091;29;20547;-79
2024/01/15 07:57:18;;;;;;;6.90;2.88;;;;;;;8.48;79.26;91034.03;4936954;29;20462;-80
2024/01/15 07:59:44;;;;;;;4.78;3.10;;;;;;;9.00;76.93;91026.13;4932502;29;20092;-81
2024/01/15 08:02:10;;;;;;;4.85;2.60;;;;;;;9.38;73.75;91015.69;4929037;29;20103;-80
2024/01/15 08:04:38;;;;;;;4.75;2.63;;;;;;;9.38;66.97;91014.94;4934584;29;20046;-81
2024/01/15 08:07:05;;;;;;;5.07;3.67;;;;;;;9.79;62.83;91010.88;4918738;29;20041;-80
2024/01/15 08:09:31;;;;;;;5.63;3.53;;;;;;;10.09;62.52;91005.66;4929853;29;20520;-80
2024/01/15 08:11:56;;;;;;;5.72;3.38;;;;;;;10.75;59.63;90999.75;4926669;29;20055;-79
2024/01/15 08:14:22;;;;;;;5.10;3.28;;;;;;;11.09;56.85;90992.63;4934432;29;20551;-80
2024/01/15 08:16:47;;;;;;;5.95;3.65;;;;;;;11.08;56.38;90993.69;4933297;29;20042;-80
2024/01/15 08:19:14;;;;;;;6.00;3.90;;;;;;;10.72;58.50;90988.06;4935090;29;20047;-80
2024/01/15 08:21:39;;;;;;;7.18;3.70;;;;;;;11.40;57.12;90984.25;4901080;29;20433;-78
2024/01/15 08:24:05;;;;;;;6.80;3.83;;;;;;;11.99;52.85;90983.03;4930973;29;20055;-80
2024/01/15 08:26:32;;;;;;;6.63;3.67;;;;;;;11.37;53.88;90975.19;4923907;29;20028;-79
2024/01/15 08:28:58;;;;;;;5.75;3.67;;;;;;;12.44;52.20;90972.31;4917455;29;20519;-79
2024/01/15 08:31:24;;;;;;;5.53;3.53;;;;;;;13.23;44.85;90978.81;4926696;29;20492;-79
2024/01/15 08:33:49;;;;;;;6.20;3.72;;;;;;;13.22;45.48;90983.31;4923417;29;20047;-79
2024/01/15 08:36:15;;;;;;;5.55;3.80;;;;;;;12.57;46.52;90991.41;4915441;29;20036;-79
2024/01/15 08:38:41;;;;;;;6.45;3.75;;;;;;;13.83;43.71;90984.78;4917033;29;20043;-79
2024/01/15 08:41:08;;;;;;;4.97;3.40;;;;;;;14.57;44.33;90991.97;4932841;29;20164;-78
2024/01/15 08:43:34;;;;;;;5.55;3.50;;;;;;;15.26;40.00;90980.78;4932631;29;20070;-79
2024/01/15 08:46:00;;;;;;;5.45;3.28;;;;;;;14.10;42.62;90987.59;4925761;29;20131;-79
2024/01/15 08:48:29;;;;;;;5.50;2.95;;;;;;;14.32;42.12;90989.56;4934171;29;20521;-79
2024/01/15 08:50:56;;;;;;;3.50;2.30;;;;;;;14.85;39.08;90986.47;4933567;29;20043;-80
2024/01/15 08:53:21;;;;;;;4.55;2.67;;;;;;;15.84;37.34;90980.63;4931258;29;20047;-79
2024/01/15 08:55:47;;;;;;;3.63;2.35;;;;;;;15.33;38.60;90980.91;4927156;29;20063;-79
2024/01/15 08:58:14;;;;;;;5.00;2.10;;;;;;;15.88;36.53;90978.78;4932109;29;20127;-79
2024/01/15 09:00:39;;;;;;;4.40;2.15;;;;;;;13.98;38.31;90970.03;4932419;29;20027;-80
2024/01/15 09:03:05;;;;;;;4.50;2.67;;;;;;;12.73;43.54;90975.72;4933954;29;20127;-80
2024/01/15 09:05:31;;;;;;;4.13;2.30;;;;;;;12.80;43.67;90983.75;4932470;29;20032;-80
2024/01/15 09:07:56;;;;;;;5.03;3.08;;;;;;;13.85;42.58;90971.28;4927522;29;20092;-79
2024/01/15 09:10:22;;;;;;;4.30;2.70;;;;;;;14.62;39.35;90967.25;4933071;29;20023;-79
2024/01/15 09:12:49;;;;;;;5.65;3.45;;;;;;;14.76;39.86;90976.16;4936375;28;20040;-80
2024/01/15 09:15:15;;;;;;;5.45;3.33;;;;;;;14.64;39.12;90978.19;4926324;29;20040;-79
2024/01/15 09:17:40;;;;;;;5.25;3.47;;;;;;;14.28;41.19;90975.56;4931922;29;20175;-78
2024/01/15 09:20:09;;;;;;;6.07;3.50;;;;;;;13.17;42.98;90974.91;4933468;29;20062;-78
2024/01/15 09:22:37;;;;;;;6.25;4.00;;;;;;;13.17;43.97;90985.44;4936478;29;20050;-80
2024/01/15 09:25:04;;;;;;;5.97;3.60;;;;;;;12.34;45.21;90993.00;4914531;29;20543;-80
2024/01/15 09:27:29;;;;;;;4.93;2.60;;;;;;;11.60;45.14;90998.34;4915303;29;20036;-79
2024/01/15 09:29:55;;;;;;;4.70;2.50;;;;;;;11.67;47.85;91003.81;4926053;29;20038;-79
2024/01/15 09:32:20;;;;;;;3.67;2.38;;;;;;;11.50;48.50;91007.38;4930668;29;20341;-79
2024/01/15 09:34:46;;;;;;;3.38;2.00;;;;;;;11.37;48.30;90998.78;4915874;29;20502;-79
2024/01/15 09:37:14;;;;;;;3.70;2.20;;;;;;;11.48;48.91;91003.56;4927896;29;20047;-79
2024/01/15 09:39:39;;;;;;;4.05;2.22;;;;;;;11.32;48.29;91001.59;4922264;29;20032;-79
2024/01/15 09:42:05;;;;;;;4.20;2.50;;;;;;;10.69;48.90;90993.16;4931263;29;20062;-78
2024/01/15 09:44:31;;;;;;;4.03;2.55;;;;;;;10.58;49.75;90993.59;4930979;29;20126;-79
2024/01/15 09:46:57;;;;;;;6.22;4.10;;;;;;;10.00;59.90;91001.22;4927110;29;20123;-79
2024/01/15 09:49:23;;;;;;;5.00;2.70;;;;;;;9.91;58.66;90991.94;4936915;29;20131;-79
2024/01/15 09:51:49;;;;;;;6.90;3.58;;;;;;;9.79;58.35;90990.78;4936986;29;20072;-79
2024/01/15 09:54:17;;;;;;;6.85;3.95;;;;;;;9.82;61.65;90991.97;4931170;29;20058;-80
2024/01/15 09:56:49;;;;;;;7.05;3.95;;;;;;;9.98;60.92;90997.41;4932752;29;20020;-81
2024/01/15 09:59:16;;;;;;;;;;;;;;;8.98;62.59;90986.50;4933376;29;20433;-79
2024/01/15 10:01:43;;;;;;;7.32;4.00;;;;;;;8.57;66.45;91000.88;4932875;29;20294;-80
2024/01/15 10:04:08;;;;;;;7.88;3.47;;;;;;;8.55;69.51;90980.31;4920187;29;20035;-79
2024/01/15 10:06:35;;;;;;;9.43;4.00;;;;;;;8.57;70.91;90958.41;4931112;28;20051;-80
2024/01/15 10:09:01;;;;;;;5.82;3.58;;;;;;;8.50;68.03;90980.50;4931026;29;20063;-80
2024/01/15 10:11:26;;;;;;;5.57;3.67;;;;;;;8.21;75.29;90975.88;4931304;29;20040;-79
2024/01/15 10:13:53;;;;;;;5.05;3.20;;;;;;;7.85;70.70;90966.53;4915461;29;20040;-79
2024/01/15 10:16:19;;;;;;;6.10;3.60;;;;;;;7.57;76.90;90966.06;4940635;29;20047;-80
2024/01/15 10:18:45;;;;;;;6.97;3.90;;;;;;;8.27;72.43;90966.09;4932010;29;20047;-78
2024/01/15 10:21:11;;;;;;;6.57;3.95;;;;;;;7.60;72.19;90962.84;4917726;29;20047;-80
2024/01/15 10:23:36;;;;;;;5.78;3.95;;;;;;;6.99;76.17;90967.13;4930888;29;20380;-80
2024/01/15 10:26:03;;;;;;;6.50;3.70;;;;;;;7.05;75.87;90974.50;4922721;29;20043;-79
2024/01/15 10:28:30;;;;;;;6.20;3.80;;;;;;;6.77;78.89;90966.09;4932485;29;20039;-79
2024/01/15 10:30:58;;;;;;;5.28;3.55;;;;;;;6.55;81.63;90968.75;4919236;29;20471;-80
2024/01/15 10:33:27;;;;;;;5.88;3.28;;;;;;;6.78;78.72;90959.09;4927771;29;20035;-79
2024/01/15 10:35:55;;;;;;;6.38;4.10;;;;;;;7.15;80.18;90965.63;4932572;29;20023;-80
2024/01/15 10:38:22;;;;;;;6.15;3.70;;;;;;;7.64;78.25;90958.56;4929513;29;20542;-79
2024/01/15 10:40:55;;;;;;;6.93;4.13;;;;;;;8.57;74.69;90966.22;4933436;29;20051;-81
2024/01/15 10:43:21;;;;;;;5.78;3.92;;;;;;;8.87;73.63;90954.78;4929275;29;20068;-80
2024/01/15 10:45:48;;;;;;;5.15;3.08;;;;;;;9.38;66.11;90944.41;4936414;29;20129;-80
2024/01/15 10:48:17;;;;;;;5.85;2.90;;;;;;;9.04;65.34;90955.81;4926294;29;20492;-80
2024/01/15 10:50:46;;;;;;;4.82;2.40;;;;;;;8.68;64.76;90949.16;4938566;29;20515;-79
2024/01/15 10:53:17;;;;;;;4.95;2.60;;;;;;;8.20;67.44;90942.34;4914970;29;20138;-79
2024/01/15 10:55:43;;;;;;;3.95;2.30;;;;;;;8.67;62.68;90942.41;4938982;29;20035;-80
2024/01/15 10:58:09;;;;;;;4.55;2.47;;;;;;;9.05;66.73;90924.19;4930444;29;20039;-79
2024/01/15 11:00:37;;;;;;;4.40;2.67;;;;;;;9.63;61.35;90929.69;4916859;29;20074;-79
2024/01/15 11:03:07;;;;;;;5.07;3.17;;;;;;;9.85;60.84;90925.25;4929310;28;20903;-79
2024/01/15 11:05:38;;;;;;;5.25;2.55;;;;;;;9.38;59.51;90908.63;4927572;29;20038;-78
2024/01/15 11:08:06;;;;;;;6.10;3.08;;;;;;;10.01;57.90;90908.63;4928030;29;20639;-82
2024/01/15 11:10:46;;;;;;;5.10;3.00;;;;;;;9.63;62.65;90919.22;4937963;29;20074;-79
2024/01/15 11:13:30;;;;;;;5.03;2.55;;;;;;;10.30;56.67;90887.97;4931686;29;20036;-81
2024/01/15 11:16:07;;;;;;;6.78;3.80;;;;;;;9.42;63.81;90889.72;4935027;29;20027;-81
2024/01/15 11:18:57;;;;;;;6.55;4.38;;;;;;;8.17;71.82;90882.97;4920661;29;20050;-82
2024/01/15 11:21:29;;;;;;;7.95;4.45;;;;;;;7.94;71.85;90901.41;4930430;29;20027;-80
2024/01/15 11:24:01;;;;;;;7.78;3.85;;;;;;;8.77;69.40;90876.84;4934957;29;20762;-83
2024/01/15 11:26:34;;;;;;;7.18;3.00;;;;;;;7.88;72.24;90866.94;4932270;29;20036;-81
2024/01/15 11:29:02;;;;;;;4.28;2.72;;;;;;;7.54;75.96;90874.75;4929548;29;20035;-81